Wild Thing — WDA2580 — position and weather

sailwx.info

Track history (hours):
 
Tides and Currents Weather Stations Pressure Air Temp Water Temp Dewpoint Dewpoint Depression Visibility Wind Speed Wind Dir Waves Ship Positions

Wild Thing

Owner: WILD THING LLC, WILMINGTON, DE. More information available from US FCC via Universal Licensing System and Coast Guard Vessel Documentation Center.

Last reported at 2018-Apr-30 19:55 UTC. Time now 2018-Jun-20 01:59 UTC.
Position N 17°47' W 062°07'.
Warning: this ship's position is 50 days out of date.

Length 23 m.

Type: Pleasure craft. MMSI: 366790260.

Date/timePositionNaut miles runAvg speedWind from/ knotsBaromVisibWave heightAir tempDewpointWater temp
2018-Apr-30 19:55N 17°47' W 062°07'4 8.7
2018-Apr-30 19:29N 17°43' W 062°06'5 9.7
2018-Apr-30 19:00N 17°39' W 062°05'5 9.6
2018-Apr-30 18:30N 17°34' W 062°05'5 9.4
2018-Apr-30 18:00N 17°29' W 062°03'4 8.6
2018-Apr-30 17:30N 17°25' W 062°02'4 8.2
2018-Apr-30 17:01N 17°21' W 062°01'5 9.6
2018-Apr-30 16:31N 17°17' W 061°59'5 9.5
2018-Apr-30 16:00N 17°12' W 061°58'5 8.9
2018-Apr-30 15:29N 17°07' W 061°57'4 7.7
2018-Apr-30 15:01N 17°04' W 061°56'3 6.5
2018-Apr-30 14:30N 17°01' W 061°55'4 7.0
2018-Apr-30 14:00N 16°60' W 061°51'4 7.5
2018-Apr-30 13:31N 17°00' W 061°47'1 2.2
2018-Apr-30 12:59N 17°01' W 061°47'0 0.0
2018-Apr-30 12:29N 17°01' W 061°47'0 0.0
2018-Apr-30 11:59N 17°01' W 061°47'0 0.0
2018-Apr-30 11:29N 17°01' W 061°47'0 0.0
2018-Apr-30 10:59N 17°01' W 061°47'0 0.0
2018-Apr-30 10:29N 17°01' W 061°47'0 0.0
2018-Apr-30 09:59N 17°01' W 061°47'0 0.0
2018-Apr-30 09:26N 17°01' W 061°47'0 0.0
2018-Apr-30 08:59N 17°01' W 061°47'0 0.0
2018-Apr-30 08:29N 17°01' W 061°47'0 0.0
2018-Apr-30 07:59N 17°01' W 061°47'0 0.0
2018-Apr-30 07:29N 17°01' W 061°47'0 0.0
2018-Apr-30 06:59N 17°01' W 061°47'0 0.0
2018-Apr-30 06:29N 17°01' W 061°47'0 0.0
2018-Apr-30 05:59N 17°01' W 061°47'0 0.0
2018-Apr-30 05:29N 17°01' W 061°47'0 0.0
2018-Apr-30 04:59N 17°01' W 061°47'0 0.0
2018-Apr-30 04:29N 17°01' W 061°47'0 0.0
2018-Apr-30 03:59N 17°01' W 061°47'0 0.0
2018-Apr-30 03:29N 17°01' W 061°47'0 0.0
2018-Apr-30 02:59N 17°01' W 061°47'0 0.0
2018-Apr-30 02:29N 17°01' W 061°47'0 0.0
2018-Apr-30 01:59N 17°01' W 061°47'0 0.0
2018-Apr-30 01:29N 17°01' W 061°47'0 0.0
2018-Apr-30 00:59N 17°01' W 061°47'0 0.0
2018-Apr-30 00:29N 17°01' W 061°47'0 0.0
2018-Apr-29 23:59N 17°01' W 061°47'0 0.0
2018-Apr-29 23:29N 17°01' W 061°47'0 0.0
2018-Apr-29 22:59N 17°01' W 061°47'0 0.0
2018-Apr-29 22:29N 17°01' W 061°47'0 0.0
2018-Apr-29 21:59N 17°01' W 061°47'0 0.0
2018-Apr-29 21:29N 17°01' W 061°47'0 0.0
2018-Apr-29 20:59N 17°01' W 061°47'0 0.0
2018-Apr-29 20:29N 17°01' W 061°47'0 0.0
2018-Apr-29 19:59N 17°01' W 061°47'0 0.0
2018-Apr-29 19:29N 17°01' W 061°47'0 0.0
2018-Apr-29 18:59N 17°01' W 061°47'0 0.0
2018-Apr-29 18:29N 17°01' W 061°47'0 0.0
2018-Apr-29 17:59N 17°01' W 061°47'0 0.0
2018-Apr-29 17:29N 17°01' W 061°47'0 0.0
2018-Apr-29 16:59N 17°01' W 061°47'0 0.0
2018-Apr-29 16:29N 17°01' W 061°47'0 0.0
2018-Apr-29 15:59N 17°01' W 061°47'0 0.0
2018-Apr-29 15:29N 17°01' W 061°47'0 0.0
2018-Apr-29 14:59N 17°01' W 061°47'0 0.0
2018-Apr-29 14:29N 17°01' W 061°47'0 0.0
2018-Apr-29 13:59N 17°01' W 061°47'0 0.0
2018-Apr-29 13:29N 17°01' W 061°47'0 0.0
2018-Apr-29 12:59N 17°01' W 061°47'0 0.0
2018-Apr-29 12:29N 17°01' W 061°47'0 0.0
2018-Apr-29 11:59N 17°01' W 061°47'0 0.0
2018-Apr-29 11:29N 17°01' W 061°47'0 0.0
2018-Apr-29 10:59N 17°01' W 061°47'0 0.0
2018-Apr-29 10:29N 17°01' W 061°47'0 0.0
2018-Apr-29 09:59N 17°01' W 061°47'0 0.0
2018-Apr-29 09:29N 17°01' W 061°47'0 0.0
2018-Apr-29 08:59N 17°01' W 061°47'0 0.0
2018-Apr-29 08:29N 17°01' W 061°47'0 0.0
2018-Apr-29 07:59N 17°01' W 061°47'0 0.0
2018-Apr-29 07:29N 17°01' W 061°47'0 0.0
2018-Apr-29 06:59N 17°01' W 061°47'0 0.0
2018-Apr-29 06:29N 17°01' W 061°47'0 0.0
2018-Apr-29 05:59N 17°01' W 061°47'0 0.0
2018-Apr-29 05:29N 17°01' W 061°47'0 0.0
2018-Apr-29 04:59N 17°01' W 061°47'0 0.0
2018-Apr-29 04:29N 17°01' W 061°47'0 0.0
2018-Apr-29 03:59N 17°01' W 061°47'0 0.0
2018-Apr-29 03:29N 17°01' W 061°47'0 0.0
2018-Apr-29 02:59N 17°01' W 061°47'0 0.0
2018-Apr-29 02:29N 17°01' W 061°47'0 0.0
2018-Apr-29 01:59N 17°01' W 061°47'0 0.0
2018-Apr-29 01:29N 17°01' W 061°47'0 0.0
2018-Apr-29 00:59N 17°01' W 061°47'0 0.0
2018-Apr-29 00:29N 17°01' W 061°47'0 0.0
2018-Apr-28 23:59N 17°01' W 061°47'0 0.0
2018-Apr-28 23:29N 17°01' W 061°47'0 0.0
2018-Apr-28 22:59N 17°01' W 061°47'0 0.0
2018-Apr-28 22:29N 17°01' W 061°47'0 0.0
2018-Apr-28 21:59N 17°01' W 061°47'0 0.0
2018-Apr-28 21:29N 17°01' W 061°47'0 0.0
2018-Apr-28 20:59N 17°01' W 061°47'0 0.0
2018-Apr-28 20:29N 17°01' W 061°47'0 0.0
2018-Apr-28 19:59N 17°01' W 061°47'0 0.0
2018-Apr-28 19:29N 17°01' W 061°47'0 0.0
2018-Apr-28 18:59N 17°01' W 061°47'0 0.0
2018-Apr-28 18:29N 17°01' W 061°47'0 0.0
2018-Apr-28 17:59N 17°01' W 061°47'0 0.0
2018-Apr-28 17:29N 17°01' W 061°47'0 0.0
2018-Apr-28 16:59N 17°01' W 061°47'0 0.0
2018-Apr-28 16:29N 17°01' W 061°47'0 0.0
2018-Apr-28 15:59N 17°01' W 061°47'0 0.0
2018-Apr-28 15:29N 17°01' W 061°47'0 0.0
2018-Apr-28 14:59N 17°01' W 061°47'0 0.0
2018-Apr-28 14:29N 17°01' W 061°47'0 0.0
2018-Apr-28 13:59N 17°01' W 061°47'0 0.0
2018-Apr-28 13:29N 17°01' W 061°47'0 0.0
2018-Apr-28 12:59N 17°01' W 061°47'0 0.0
2018-Apr-28 12:29N 17°01' W 061°47'0 0.0
2018-Apr-28 11:59N 17°01' W 061°47'0 0.0
2018-Apr-28 11:29N 17°01' W 061°47'0 0.0
2018-Apr-28 10:59N 17°01' W 061°47'0 0.0
2018-Apr-28 10:29N 17°01' W 061°47'0 0.0
2018-Apr-28 09:59N 17°01' W 061°47'0 0.0
2018-Apr-28 09:29N 17°01' W 061°47'0 0.0
2018-Apr-28 08:59N 17°01' W 061°47'0 0.0
2018-Apr-28 08:29N 17°01' W 061°47'0 0.0
2018-Apr-28 07:59N 17°01' W 061°47'0 0.0
2018-Apr-28 07:29N 17°01' W 061°47'0 0.0
2018-Apr-28 06:59N 17°01' W 061°47'0 0.0
2018-Apr-28 06:29N 17°01' W 061°47'0 0.0
2018-Apr-28 05:59N 17°01' W 061°47'0 0.0
2018-Apr-28 05:29N 17°01' W 061°47'0 0.0
2018-Apr-28 04:59N 17°01' W 061°47'0 0.0
2018-Apr-28 04:29N 17°01' W 061°47'0 0.0
2018-Apr-28 03:59N 17°01' W 061°47'0 0.0
2018-Apr-28 03:29N 17°01' W 061°47'0 0.0
2018-Apr-28 02:59N 17°01' W 061°47'0 0.0
2018-Apr-28 02:29N 17°01' W 061°47'0 0.0
2018-Apr-28 01:59N 17°01' W 061°47'0 0.0
2018-Apr-28 01:29N 17°01' W 061°47'0 0.0
2018-Apr-28 00:59N 17°01' W 061°47'0 0.0
2018-Apr-28 00:29N 17°01' W 061°47'0 0.0
2018-Apr-27 23:59N 17°01' W 061°47'0 0.0
2018-Apr-27 23:29N 17°01' W 061°47'0 0.0
2018-Apr-27 22:59N 17°01' W 061°47'0 0.0
2018-Apr-27 22:29N 17°01' W 061°47'0 0.0
2018-Apr-27 21:59N 17°01' W 061°47'0 0.0
2018-Apr-27 21:29N 17°01' W 061°47'0 0.0
2018-Apr-27 20:59N 17°01' W 061°47'0 0.0
2018-Apr-27 20:29N 17°01' W 061°47'0 0.0
2018-Apr-27 19:59N 17°01' W 061°47'0 0.0
2018-Apr-27 19:29N 17°01' W 061°47'0 0.0
2018-Apr-27 18:59N 17°01' W 061°47'0 0.0
2018-Apr-27 18:29N 17°01' W 061°47'0 0.0
2018-Apr-27 17:59N 17°01' W 061°47'0 0.0
2018-Apr-27 17:29N 17°01' W 061°47'0 0.0
2018-Apr-27 16:59N 17°01' W 061°47'0 0.0
2018-Apr-27 16:29N 17°01' W 061°47'0 0.0
2018-Apr-27 15:59N 17°01' W 061°47'0 0.0
2018-Apr-27 15:29N 17°01' W 061°47'0 0.0
2018-Apr-27 14:59N 17°01' W 061°47'0 0.0
2018-Apr-27 14:29N 17°01' W 061°47'0 0.0
2018-Apr-27 13:59N 17°01' W 061°47'0 0.0
2018-Apr-27 13:29N 17°01' W 061°47'0 0.0
2018-Apr-27 12:59N 17°01' W 061°47'0 0.0
2018-Apr-27 12:29N 17°01' W 061°47'0 0.0
2018-Apr-27 11:59N 17°01' W 061°47'0 0.0
2018-Apr-27 11:29N 17°01' W 061°47'0 0.0
2018-Apr-27 10:59N 17°01' W 061°47'0 0.0
2018-Apr-27 10:29N 17°01' W 061°47'0 0.0
2018-Apr-27 09:59N 17°01' W 061°47'0 0.0
2018-Apr-27 09:29N 17°01' W 061°47'0 0.0
2018-Apr-27 08:59N 17°01' W 061°47'0 0.0
2018-Apr-27 08:29N 17°01' W 061°47'0 0.0
2018-Apr-27 07:59N 17°01' W 061°47'0 0.0
2018-Apr-27 07:29N 17°01' W 061°47'0 0.0
2018-Apr-27 06:59N 17°01' W 061°47'0 0.0
2018-Apr-27 06:29N 17°01' W 061°47'0 0.0
2018-Apr-27 05:59N 17°01' W 061°47'0 0.0
2018-Apr-27 05:29N 17°01' W 061°47'0 0.0
2018-Apr-27 04:59N 17°01' W 061°47'0 0.0
2018-Apr-27 04:29N 17°01' W 061°47'0 0.0
2018-Apr-27 03:59N 17°01' W 061°47'0 0.0
2018-Apr-27 03:29N 17°01' W 061°47'0 0.0
2018-Apr-27 02:59N 17°01' W 061°47'0 0.0
2018-Apr-27 02:29N 17°01' W 061°47'0 0.0
2018-Apr-27 01:59N 17°01' W 061°47'0 0.0
2018-Apr-27 01:29N 17°01' W 061°47'0 0.0
2018-Apr-27 00:59N 17°01' W 061°47'0 0.0
2018-Apr-27 00:29N 17°01' W 061°47'0 0.0
2018-Apr-26 23:59N 17°01' W 061°47'0 0.0
2018-Apr-26 23:29N 17°01' W 061°47'0 0.0
2018-Apr-26 22:59N 17°01' W 061°47'0 0.0
2018-Apr-26 22:29N 17°01' W 061°47'0 0.0
2018-Apr-26 21:59N 17°01' W 061°47'0 0.0
2018-Apr-26 21:29N 17°01' W 061°47'0 0.0
2018-Apr-26 20:59N 17°01' W 061°47'0 0.0
2018-Apr-26 20:29N 17°01' W 061°47'0 0.0
2018-Apr-26 19:59N 17°01' W 061°47'0 0.0
2018-Apr-26 19:29N 17°01' W 061°47'0 0.0
2018-Apr-26 18:59N 17°01' W 061°47'0 0.0
2018-Apr-26 18:29N 17°01' W 061°47'0 0.0
2018-Apr-26 17:59N 17°01' W 061°47'0 0.0
2018-Apr-26 17:29N 17°01' W 061°47'0 0.0
2018-Apr-26 16:59N 17°01' W 061°47'0 0.0
2018-Apr-26 16:29N 17°01' W 061°47'0 0.0
2018-Apr-26 15:59N 17°01' W 061°47'0 0.0
2018-Apr-26 15:29N 17°01' W 061°47'0 0.0
2018-Apr-26 14:59N 17°01' W 061°47'0 0.0
2018-Apr-26 14:29N 17°01' W 061°47'0 0.0
2018-Apr-26 13:59N 17°01' W 061°47'0 0.0
2018-Apr-26 13:29N 17°01' W 061°47'0 0.0
2018-Apr-26 12:59N 17°01' W 061°47'0 0.0
2018-Apr-26 12:29N 17°01' W 061°47'0 0.0
2018-Apr-26 11:59N 17°01' W 061°47'0 0.0
2018-Apr-26 11:29N 17°01' W 061°47'0 0.0
2018-Apr-26 10:59N 17°01' W 061°47'0 0.0
2018-Apr-26 10:29N 17°01' W 061°47'0 0.0
2018-Apr-26 09:59N 17°01' W 061°47'0 0.0
2018-Apr-26 09:29N 17°01' W 061°47'0 0.0
2018-Apr-26 08:59N 17°01' W 061°47'0 0.0
2018-Apr-26 08:29N 17°01' W 061°47'0 0.0
2018-Apr-26 07:59N 17°01' W 061°47'0 0.0
2018-Apr-26 07:29N 17°01' W 061°47'0 0.0
2018-Apr-26 06:59N 17°01' W 061°47'0 0.0
2018-Apr-26 06:29N 17°01' W 061°47'0 0.0
2018-Apr-26 05:56N 17°01' W 061°47'0 0.0
2018-Apr-26 05:29N 17°01' W 061°47'0 0.0
2018-Apr-26 04:59N 17°01' W 061°47'0 0.0
2018-Apr-26 04:29N 17°01' W 061°47'0 0.0
2018-Apr-26 03:59N 17°01' W 061°47'0 0.0
2018-Apr-26 03:29N 17°01' W 061°47'0 0.0
2018-Apr-26 02:59N 17°01' W 061°47'0 0.0
2018-Apr-26 02:29N 17°01' W 061°47'0 0.0
2018-Apr-26 01:59N 17°01' W 061°47'0 0.0
2018-Apr-26 01:29N 17°01' W 061°47'0 0.0
2018-Apr-26 00:59N 17°01' W 061°47'0 0.0
2018-Apr-26 00:29N 17°01' W 061°47'0 0.0
2018-Apr-25 23:59N 17°01' W 061°47'0 0.0
2018-Apr-25 23:29N 17°01' W 061°47'0 0.0
2018-Apr-25 22:59N 17°01' W 061°47'0 0.0
2018-Apr-25 22:29N 17°01' W 061°47'0 0.0
2018-Apr-25 21:59N 17°01' W 061°47'0 0.0
2018-Apr-25 21:29N 17°01' W 061°47'0 0.0
2018-Apr-25 20:59N 17°01' W 061°47'0 0.0
2018-Apr-25 20:29N 17°01' W 061°47'0 0.0
2018-Apr-25 19:59N 17°01' W 061°47'0 0.0
2018-Apr-25 19:29N 17°01' W 061°47'0 0.0
2018-Apr-25 18:59N 17°01' W 061°47'0 0.0
2018-Apr-25 18:29N 17°01' W 061°47'0 0.0
2018-Apr-25 17:59N 17°01' W 061°47'0 0.0
2018-Apr-25 17:29N 17°01' W 061°47'0 0.0
2018-Apr-25 16:59N 17°01' W 061°47'0 0.0
2018-Apr-25 16:29N 17°01' W 061°47'0 0.0
2018-Apr-25 15:59N 17°01' W 061°47'0 0.0
2018-Apr-25 15:29N 17°01' W 061°47'0 0.0
2018-Apr-25 14:59N 17°01' W 061°47'0 0.0
2018-Apr-25 14:29N 17°01' W 061°47'0 0.0
2018-Apr-25 13:59N 17°01' W 061°47'0 0.0
2018-Apr-25 13:29N 17°01' W 061°47'0 0.0
2018-Apr-25 12:59N 17°01' W 061°47'0 0.0
2018-Apr-25 12:29N 17°01' W 061°47'0 0.0
2018-Apr-25 11:59N 17°01' W 061°47'0 0.0
2018-Apr-25 11:29N 17°01' W 061°47'0 0.0
2018-Apr-25 10:59N 17°01' W 061°47'0 0.0
2018-Apr-25 10:29N 17°01' W 061°47'0 0.0
2018-Apr-25 09:59N 17°01' W 061°47'0 0.0
2018-Apr-25 09:29N 17°01' W 061°47'0 0.0
2018-Apr-25 08:56N 17°01' W 061°47'0 0.0
2018-Apr-25 08:29N 17°01' W 061°47'0 0.0
2018-Apr-25 07:59N 17°01' W 061°47'0 0.0
2018-Apr-25 07:29N 17°01' W 061°47'0 0.0
2018-Apr-25 06:59N 17°01' W 061°47'0 0.0
2018-Apr-25 06:29N 17°01' W 061°47'0 0.0
2018-Apr-25 05:59N 17°01' W 061°47'0 0.0
2018-Apr-25 05:29N 17°01' W 061°47'0 0.0
2018-Apr-25 04:56N 17°01' W 061°47'0 0.0
2018-Apr-25 04:29N 17°01' W 061°47'0 0.0
2018-Apr-25 03:59N 17°01' W 061°47'0 0.0
2018-Apr-25 03:29N 17°01' W 061°47'0 0.0
2018-Apr-25 02:59N 17°01' W 061°47'0 0.0
2018-Apr-25 02:29N 17°01' W 061°47'0 0.0
2018-Apr-25 01:59N 17°01' W 061°47'0 0.0
2018-Apr-25 01:29N 17°01' W 061°47'0 0.0
2018-Apr-25 00:59N 17°01' W 061°47'0 0.0
2018-Apr-25 00:29N 17°01' W 061°47'0 0.0
2018-Apr-24 23:59N 17°01' W 061°47'0 0.0
2018-Apr-24 23:29N 17°01' W 061°47'0 0.0
2018-Apr-24 22:59N 17°01' W 061°47'0 0.0
2018-Apr-24 22:29N 17°01' W 061°47'0 0.0
2018-Apr-24 21:59N 17°01' W 061°47'0 0.0
2018-Apr-24 21:29N 17°01' W 061°47'0 0.0
2018-Apr-24 20:59N 17°01' W 061°47'0 0.0
2018-Apr-24 20:29N 17°01' W 061°47'0 0.0
2018-Apr-24 19:59N 17°01' W 061°47'0 0.0
2018-Apr-24 19:29N 17°01' W 061°47'0 0.0
2018-Apr-24 18:59N 17°01' W 061°47'0 0.0
2018-Apr-24 18:29N 17°01' W 061°47'0 0.0
2018-Apr-24 17:59N 17°01' W 061°47'0 0.0
2018-Apr-24 17:29N 17°01' W 061°47'0 0.0
2018-Apr-24 16:59N 17°01' W 061°47'0 0.0
2018-Apr-24 16:29N 17°01' W 061°47'0 0.0
2018-Apr-24 15:59N 17°01' W 061°47'0 0.0
2018-Apr-24 15:29N 17°01' W 061°47'0 0.0
2018-Apr-24 14:59N 17°01' W 061°47'0 0.0
2018-Apr-24 14:29N 17°01' W 061°47'0 0.0
2018-Apr-24 13:59N 17°01' W 061°47'0 0.0
2018-Apr-24 13:29N 17°01' W 061°47'0 0.0
2018-Apr-24 12:59N 17°01' W 061°47'0 0.0
2018-Apr-24 12:29N 17°01' W 061°47'0 0.0
2018-Apr-24 11:59N 17°01' W 061°47'0 0.0
2018-Apr-24 11:29N 17°01' W 061°47'0 0.0
2018-Apr-24 10:59N 17°01' W 061°47'0 0.0
2018-Apr-24 10:29N 17°01' W 061°47'0 0.0
2018-Apr-24 09:59N 17°01' W 061°47'0 0.0
2018-Apr-24 09:29N 17°01' W 061°47'0 0.0
2018-Apr-24 08:59N 17°01' W 061°47'0 0.0
2018-Apr-24 08:29N 17°01' W 061°47'0 0.0
2018-Apr-24 07:59N 17°01' W 061°47'0 0.0
2018-Apr-24 07:29N 17°01' W 061°47'0 0.0
2018-Apr-24 06:59N 17°01' W 061°47'0 0.0
2018-Apr-24 06:29N 17°01' W 061°47'0 0.0
2018-Apr-24 05:59N 17°01' W 061°47'0 0.0
2018-Apr-24 05:29N 17°01' W 061°47'0 0.0
2018-Apr-24 04:59N 17°01' W 061°47'0 0.0
2018-Apr-24 04:29N 17°01' W 061°47'0 0.0
2018-Apr-24 03:59N 17°01' W 061°47'0 0.0
2018-Apr-24 03:29N 17°01' W 061°47'0 0.0
2018-Apr-24 02:59N 17°01' W 061°47'0 0.0
2018-Apr-24 02:29N 17°01' W 061°47'0 0.0
2018-Apr-24 01:59N 17°01' W 061°47'0 0.0
2018-Apr-24 01:29N 17°01' W 061°47'0 0.0
2018-Apr-24 00:59N 17°01' W 061°47'0 0.0
2018-Apr-24 00:29N 17°01' W 061°47'0 0.0
2018-Apr-23 23:59N 17°01' W 061°47'0 0.0
2018-Apr-23 23:29N 17°01' W 061°47'0 0.0
2018-Apr-23 22:59N 17°01' W 061°47'0 0.0
2018-Apr-23 22:29N 17°01' W 061°47'0 0.0
2018-Apr-23 21:59N 17°01' W 061°47'0 0.0
2018-Apr-23 21:29N 17°01' W 061°47'0 0.0
2018-Apr-23 20:59N 17°01' W 061°47'0 0.0
2018-Apr-23 20:29N 17°01' W 061°47'0 0.0
2018-Apr-23 19:59N 17°01' W 061°47'0 0.0
2018-Apr-23 19:29N 17°01' W 061°47'0 0.0
2018-Apr-23 18:59N 17°01' W 061°47'0 0.0
2018-Apr-23 18:29N 17°01' W 061°47'0 0.0
2018-Apr-23 17:59N 17°01' W 061°47'0 0.0
2018-Apr-23 17:29N 17°01' W 061°47'0 0.0
2018-Apr-23 16:59N 17°01' W 061°47'0 0.0
2018-Apr-23 16:29N 17°01' W 061°47'0 0.0
2018-Apr-23 15:59N 17°01' W 061°47'0 0.0
2018-Apr-23 15:29N 17°01' W 061°47'0 0.0
2018-Apr-23 14:59N 17°01' W 061°47'0 0.0
2018-Apr-23 14:29N 17°01' W 061°47'0 0.0
2018-Apr-23 13:59N 17°01' W 061°47'0 0.0
2018-Apr-23 13:29N 17°01' W 061°47'0 0.0
2018-Apr-23 12:59N 17°01' W 061°47'0 0.0
2018-Apr-23 12:29N 17°01' W 061°47'0 0.0
2018-Apr-23 11:59N 17°01' W 061°47'0 0.0
2018-Apr-23 11:29N 17°01' W 061°47'0 0.0
2018-Apr-23 10:59N 17°01' W 061°47'0 0.0
2018-Apr-23 10:29N 17°01' W 061°47'0 0.0
2018-Apr-23 09:59N 17°01' W 061°47'0 0.0
2018-Apr-23 09:29N 17°01' W 061°47'0 0.0
2018-Apr-23 08:59N 17°01' W 061°47'0 0.0
2018-Apr-23 08:29N 17°01' W 061°47'0 0.0
2018-Apr-23 07:59N 17°01' W 061°47'0 0.0
2018-Apr-23 07:29N 17°01' W 061°47'0 0.0
2018-Apr-23 06:59N 17°01' W 061°47'0 0.0
2018-Apr-23 06:29N 17°01' W 061°47'0 0.0
2018-Apr-23 05:59N 17°01' W 061°47'0 0.0
2018-Apr-23 05:29N 17°01' W 061°47'0 0.0
2018-Apr-23 04:59N 17°01' W 061°47'0 0.0
2018-Apr-23 04:29N 17°01' W 061°47'0 0.0
2018-Apr-23 03:59N 17°01' W 061°47'0 0.0
2018-Apr-23 03:29N 17°01' W 061°47'0 0.0
2018-Apr-23 02:59N 17°01' W 061°47'0 0.0
2018-Apr-23 02:29N 17°01' W 061°47'0 0.0
2018-Apr-23 01:59N 17°01' W 061°47'0 0.0
2018-Apr-23 01:29N 17°01' W 061°47'0 0.0
2018-Apr-23 00:59N 17°01' W 061°47'0 0.0
2018-Apr-23 00:29N 17°01' W 061°47'0 0.0
2018-Apr-22 23:59N 17°01' W 061°47'0 0.0
2018-Apr-22 23:29N 17°01' W 061°47'0 0.0
2018-Apr-22 22:59N 17°01' W 061°47'0 0.0
2018-Apr-22 22:29N 17°01' W 061°47'0 0.0
2018-Apr-22 21:59N 17°01' W 061°47'0 0.0
2018-Apr-22 21:29N 17°01' W 061°47'0 0.0
2018-Apr-22 20:59N 17°01' W 061°47'0 0.0
2018-Apr-22 20:29N 17°01' W 061°47'0 0.0
2018-Apr-22 19:59N 17°01' W 061°47'0 0.0
2018-Apr-22 19:29N 17°01' W 061°47'0 0.0
2018-Apr-22 18:59N 17°01' W 061°47'0 0.0
2018-Apr-22 18:29N 17°01' W 061°47'0 0.0
2018-Apr-22 17:59N 17°01' W 061°47'0 0.0
2018-Apr-22 17:29N 17°01' W 061°47'0 0.0
2018-Apr-22 16:59N 17°01' W 061°47'0 0.0
2018-Apr-22 16:29N 17°01' W 061°47'0 0.0
2018-Apr-22 15:59N 17°01' W 061°47'0 0.0
2018-Apr-22 15:29N 17°01' W 061°47'0 0.0
2018-Apr-22 14:59N 17°01' W 061°47'0 0.0
2018-Apr-22 14:29N 17°01' W 061°47'0 0.0
2018-Apr-22 13:59N 17°01' W 061°47'0 0.0
2018-Apr-22 13:29N 17°01' W 061°47'0 0.0
2018-Apr-22 12:59N 17°01' W 061°47'0 0.0
2018-Apr-22 12:29N 17°01' W 061°47'0 0.0
2018-Apr-22 11:59N 17°01' W 061°47'0 0.0
2018-Apr-22 11:29N 17°01' W 061°47'0 0.0
2018-Apr-22 10:59N 17°01' W 061°47'0 0.0
2018-Apr-22 10:29N 17°01' W 061°47'0 0.0
2018-Apr-22 09:59N 17°01' W 061°47'0 0.0
2018-Apr-22 09:29N 17°01' W 061°47'0 0.0
2018-Apr-22 08:59N 17°01' W 061°47'0 0.0
2018-Apr-22 08:29N 17°01' W 061°47'0 0.0
2018-Apr-22 07:59N 17°01' W 061°47'0 0.0
2018-Apr-22 07:29N 17°01' W 061°47'0 0.0
2018-Apr-22 06:59N 17°01' W 061°47'0 0.0
2018-Apr-22 06:29N 17°01' W 061°47'0 0.0
2018-Apr-22 05:59N 17°01' W 061°47'0 0.0
2018-Apr-22 05:29N 17°01' W 061°47'0 0.0
2018-Apr-22 04:59N 17°01' W 061°47'0 0.0
2018-Apr-22 04:29N 17°01' W 061°47'0 0.0
2018-Apr-22 03:59N 17°01' W 061°47'0 0.0
2018-Apr-22 03:29N 17°01' W 061°47'0 0.0
2018-Apr-22 02:59N 17°01' W 061°47'0 0.0
2018-Apr-22 02:29N 17°01' W 061°47'0 0.0
2018-Apr-22 01:59N 17°01' W 061°47'0 0.0
2018-Apr-22 01:29N 17°01' W 061°47'0 0.0
2018-Apr-22 00:59N 17°01' W 061°47'0 0.0
2018-Apr-22 00:29N 17°01' W 061°47'0 0.0
2018-Apr-21 23:59N 17°01' W 061°47'0 0.0
2018-Apr-21 23:29N 17°01' W 061°47'0 0.0
2018-Apr-21 22:59N 17°01' W 061°47'0 0.0
2018-Apr-21 22:29N 17°01' W 061°47'0 0.0
2018-Apr-21 21:56N 17°01' W 061°47'0 0.0
2018-Apr-21 21:29N 17°01' W 061°47'0 0.0
2018-Apr-21 20:59N 17°01' W 061°47'0 0.0
2018-Apr-21 20:29N 17°01' W 061°47'0 0.0
2018-Apr-21 19:59N 17°01' W 061°47'0 0.0
2018-Apr-21 19:29N 17°01' W 061°47'0 0.0
2018-Apr-21 18:59N 17°01' W 061°47'0 0.0
2018-Apr-21 18:29N 17°01' W 061°47'0 0.0
2018-Apr-21 17:59N 17°01' W 061°47'0 0.0
2018-Apr-21 17:29N 17°01' W 061°47'0 0.0
2018-Apr-21 16:59N 17°01' W 061°47'0 0.0
2018-Apr-21 16:29N 17°01' W 061°47'0 0.0
2018-Apr-21 15:59N 17°01' W 061°47'0 0.0
2018-Apr-21 15:29N 17°01' W 061°47'0 0.0
2018-Apr-21 14:59N 17°01' W 061°47'0 0.0
2018-Apr-21 14:29N 17°01' W 061°47'0 0.0
2018-Apr-21 13:59N 17°01' W 061°47'0 0.0
2018-Apr-21 13:29N 17°01' W 061°47'0 0.0
2018-Apr-21 12:59N 17°01' W 061°47'0 0.0
2018-Apr-21 12:29N 17°01' W 061°47'0 0.0
2018-Apr-21 11:59N 17°01' W 061°47'0 0.0
2018-Apr-21 11:29N 17°01' W 061°47'0 0.0
2018-Apr-21 10:59N 17°01' W 061°47'0 0.0
2018-Apr-21 10:29N 17°01' W 061°47'0 0.0
2018-Apr-21 09:59N 17°01' W 061°47'0 0.0
2018-Apr-21 09:29N 17°01' W 061°47'0 0.0
2018-Apr-21 08:59N 17°01' W 061°47'0 0.0
2018-Apr-21 08:29N 17°01' W 061°47'0 0.0
2018-Apr-21 07:59N 17°01' W 061°47'0 0.0
2018-Apr-21 07:29N 17°01' W 061°47'0 0.0
2018-Apr-21 06:59N 17°01' W 061°47'0 0.0
2018-Apr-21 06:29N 17°01' W 061°47'0 0.0
2018-Apr-21 05:59N 17°01' W 061°47'0 0.0
2018-Apr-21 05:29N 17°01' W 061°47'0 0.0
2018-Apr-21 04:59N 17°01' W 061°47'0 0.0
2018-Apr-21 04:29N 17°01' W 061°47'0 0.0
2018-Apr-21 03:59N 17°01' W 061°47'0 0.0
2018-Apr-21 03:29N 17°01' W 061°47'0 0.0
2018-Apr-21 02:59N 17°01' W 061°47'0 0.0
2018-Apr-21 02:29N 17°01' W 061°47'0 0.0
2018-Apr-21 01:59N 17°01' W 061°47'0 0.0
2018-Apr-21 01:29N 17°01' W 061°47'0 0.0
2018-Apr-21 00:59N 17°01' W 061°47'0 0.0
2018-Apr-21 00:29N 17°01' W 061°47'0 0.0
2018-Apr-20 23:59N 17°01' W 061°47'0 0.0
2018-Apr-20 23:29N 17°01' W 061°47'0 0.0
2018-Apr-20 22:59N 17°01' W 061°47'0 0.0
2018-Apr-20 22:29N 17°01' W 061°47'0 0.0
2018-Apr-20 21:59N 17°01' W 061°47'0 0.0
2018-Apr-20 21:29N 17°01' W 061°47'0 0.0
2018-Apr-20 20:59N 17°01' W 061°47'0 0.0
2018-Apr-20 20:29N 17°01' W 061°47'0 0.0
2018-Apr-20 19:59N 17°01' W 061°47'  
Track history (hours):
 
Tides and Currents Weather Stations Pressure Air Temp Water Temp Dewpoint Dewpoint Depression Visibility Wind Speed Wind Dir Waves Ship Positions

Wild Thing

Owner: WILD THING LLC, WILMINGTON, DE. More information available from US FCC via Universal Licensing System and Coast Guard Vessel Documentation Center.

Last reported at 2018-Apr-30 19:55 UTC. Time now 2018-Jun-20 01:59 UTC.
Position N 17°47' W 062°07'.
Warning: this ship's position is 50 days out of date.

Length 23 m.

Type: Pleasure craft. MMSI: 366790260.

Date/timePositionNaut miles runAvg speedWind from/ knotsBaromVisibWave heightAir tempDewpointWater temp
2018-Apr-30 19:55N 17°47' W 062°07'4 8.7
2018-Apr-30 19:29N 17°43' W 062°06'5 9.7
2018-Apr-30 19:00N 17°39' W 062°05'5 9.6
2018-Apr-30 18:30N 17°34' W 062°05'5 9.4
2018-Apr-30 18:00N 17°29' W 062°03'4 8.6
2018-Apr-30 17:30N 17°25' W 062°02'4 8.2
2018-Apr-30 17:01N 17°21' W 062°01'5 9.6
2018-Apr-30 16:31N 17°17' W 061°59'5 9.5
2018-Apr-30 16:00N 17°12' W 061°58'5 8.9
2018-Apr-30 15:29N 17°07' W 061°57'4 7.7
2018-Apr-30 15:01N 17°04' W 061°56'3 6.5
2018-Apr-30 14:30N 17°01' W 061°55'4 7.0
2018-Apr-30 14:00N 16°60' W 061°51'4 7.5
2018-Apr-30 13:31N 17°00' W 061°47'1 2.2
2018-Apr-30 12:59N 17°01' W 061°47'0 0.0
2018-Apr-30 12:29N 17°01' W 061°47'0 0.0
2018-Apr-30 11:59N 17°01' W 061°47'0 0.0
2018-Apr-30 11:29N 17°01' W 061°47'0 0.0
2018-Apr-30 10:59N 17°01' W 061°47'0 0.0
2018-Apr-30 10:29N 17°01' W 061°47'0 0.0
2018-Apr-30 09:59N 17°01' W 061°47'0 0.0
2018-Apr-30 09:26N 17°01' W 061°47'0 0.0
2018-Apr-30 08:59N 17°01' W 061°47'0 0.0
2018-Apr-30 08:29N 17°01' W 061°47'0 0.0
2018-Apr-30 07:59N 17°01' W 061°47'0 0.0
2018-Apr-30 07:29N 17°01' W 061°47'0 0.0
2018-Apr-30 06:59N 17°01' W 061°47'0 0.0
2018-Apr-30 06:29N 17°01' W 061°47'0 0.0
2018-Apr-30 05:59N 17°01' W 061°47'0 0.0
2018-Apr-30 05:29N 17°01' W 061°47'0 0.0
2018-Apr-30 04:59N 17°01' W 061°47'0 0.0
2018-Apr-30 04:29N 17°01' W 061°47'0 0.0
2018-Apr-30 03:59N 17°01' W 061°47'0 0.0
2018-Apr-30 03:29N 17°01' W 061°47'0 0.0
2018-Apr-30 02:59N 17°01' W 061°47'0 0.0
2018-Apr-30 02:29N 17°01' W 061°47'0 0.0
2018-Apr-30 01:59N 17°01' W 061°47'0 0.0
2018-Apr-30 01:29N 17°01' W 061°47'0 0.0
2018-Apr-30 00:59N 17°01' W 061°47'0 0.0
2018-Apr-30 00:29N 17°01' W 061°47'0 0.0
2018-Apr-29 23:59N 17°01' W 061°47'0 0.0
2018-Apr-29 23:29N 17°01' W 061°47'0 0.0
2018-Apr-29 22:59N 17°01' W 061°47'0 0.0
2018-Apr-29 22:29N 17°01' W 061°47'0 0.0
2018-Apr-29 21:59N 17°01' W 061°47'0 0.0
2018-Apr-29 21:29N 17°01' W 061°47'0 0.0
2018-Apr-29 20:59N 17°01' W 061°47'0 0.0
2018-Apr-29 20:29N 17°01' W 061°47'0 0.0
2018-Apr-29 19:59N 17°01' W 061°47'0 0.0
2018-Apr-29 19:29N 17°01' W 061°47'0 0.0
2018-Apr-29 18:59N 17°01' W 061°47'0 0.0
2018-Apr-29 18:29N 17°01' W 061°47'0 0.0
2018-Apr-29 17:59N 17°01' W 061°47'0 0.0
2018-Apr-29 17:29N 17°01' W 061°47'0 0.0
2018-Apr-29 16:59N 17°01' W 061°47'0 0.0
2018-Apr-29 16:29N 17°01' W 061°47'0 0.0
2018-Apr-29 15:59N 17°01' W 061°47'0 0.0
2018-Apr-29 15:29N 17°01' W 061°47'0 0.0
2018-Apr-29 14:59N 17°01' W 061°47'0 0.0
2018-Apr-29 14:29N 17°01' W 061°47'0 0.0
2018-Apr-29 13:59N 17°01' W 061°47'0 0.0
2018-Apr-29 13:29N 17°01' W 061°47'0 0.0
2018-Apr-29 12:59N 17°01' W 061°47'0 0.0
2018-Apr-29 12:29N 17°01' W 061°47'0 0.0
2018-Apr-29 11:59N 17°01' W 061°47'0 0.0
2018-Apr-29 11:29N 17°01' W 061°47'0 0.0
2018-Apr-29 10:59N 17°01' W 061°47'0 0.0
2018-Apr-29 10:29N 17°01' W 061°47'0 0.0
2018-Apr-29 09:59N 17°01' W 061°47'0 0.0
2018-Apr-29 09:29N 17°01' W 061°47'0 0.0
2018-Apr-29 08:59N 17°01' W 061°47'0 0.0
2018-Apr-29 08:29N 17°01' W 061°47'0 0.0
2018-Apr-29 07:59N 17°01' W 061°47'0 0.0
2018-Apr-29 07:29N 17°01' W 061°47'0 0.0
2018-Apr-29 06:59N 17°01' W 061°47'0 0.0
2018-Apr-29 06:29N 17°01' W 061°47'0 0.0
2018-Apr-29 05:59N 17°01' W 061°47'0 0.0
2018-Apr-29 05:29N 17°01' W 061°47'0 0.0
2018-Apr-29 04:59N 17°01' W 061°47'0 0.0
2018-Apr-29 04:29N 17°01' W 061°47'0 0.0
2018-Apr-29 03:59N 17°01' W 061°47'0 0.0
2018-Apr-29 03:29N 17°01' W 061°47'0 0.0
2018-Apr-29 02:59N 17°01' W 061°47'0 0.0
2018-Apr-29 02:29N 17°01' W 061°47'0 0.0
2018-Apr-29 01:59N 17°01' W 061°47'0 0.0
2018-Apr-29 01:29N 17°01' W 061°47'0 0.0
2018-Apr-29 00:59N 17°01' W 061°47'0 0.0
2018-Apr-29 00:29N 17°01' W 061°47'0 0.0
2018-Apr-28 23:59N 17°01' W 061°47'0 0.0
2018-Apr-28 23:29N 17°01' W 061°47'0 0.0
2018-Apr-28 22:59N 17°01' W 061°47'0 0.0
2018-Apr-28 22:29N 17°01' W 061°47'0 0.0
2018-Apr-28 21:59N 17°01' W 061°47'0 0.0
2018-Apr-28 21:29N 17°01' W 061°47'0 0.0
2018-Apr-28 20:59N 17°01' W 061°47'0 0.0
2018-Apr-28 20:29N 17°01' W 061°47'0 0.0
2018-Apr-28 19:59N 17°01' W 061°47'0 0.0
2018-Apr-28 19:29N 17°01' W 061°47'0 0.0
2018-Apr-28 18:59N 17°01' W 061°47'0 0.0
2018-Apr-28 18:29N 17°01' W 061°47'0 0.0
2018-Apr-28 17:59N 17°01' W 061°47'0 0.0
2018-Apr-28 17:29N 17°01' W 061°47'0 0.0
2018-Apr-28 16:59N 17°01' W 061°47'0 0.0
2018-Apr-28 16:29N 17°01' W 061°47'0 0.0
2018-Apr-28 15:59N 17°01' W 061°47'0 0.0
2018-Apr-28 15:29N 17°01' W 061°47'0 0.0
2018-Apr-28 14:59N 17°01' W 061°47'0 0.0
2018-Apr-28 14:29N 17°01' W 061°47'0 0.0
2018-Apr-28 13:59N 17°01' W 061°47'0 0.0
2018-Apr-28 13:29N 17°01' W 061°47'0 0.0
2018-Apr-28 12:59N 17°01' W 061°47'0 0.0
2018-Apr-28 12:29N 17°01' W 061°47'0 0.0
2018-Apr-28 11:59N 17°01' W 061°47'0 0.0
2018-Apr-28 11:29N 17°01' W 061°47'0 0.0
2018-Apr-28 10:59N 17°01' W 061°47'0 0.0
2018-Apr-28 10:29N 17°01' W 061°47'0 0.0
2018-Apr-28 09:59N 17°01' W 061°47'0 0.0
2018-Apr-28 09:29N 17°01' W 061°47'0 0.0
2018-Apr-28 08:59N 17°01' W 061°47'0 0.0
2018-Apr-28 08:29N 17°01' W 061°47'0 0.0
2018-Apr-28 07:59N 17°01' W 061°47'0 0.0
2018-Apr-28 07:29N 17°01' W 061°47'0 0.0
2018-Apr-28 06:59N 17°01' W 061°47'0 0.0
2018-Apr-28 06:29N 17°01' W 061°47'0 0.0
2018-Apr-28 05:59N 17°01' W 061°47'0 0.0
2018-Apr-28 05:29N 17°01' W 061°47'0 0.0
2018-Apr-28 04:59N 17°01' W 061°47'0 0.0
2018-Apr-28 04:29N 17°01' W 061°47'0 0.0
2018-Apr-28 03:59N 17°01' W 061°47'0 0.0
2018-Apr-28 03:29N 17°01' W 061°47'0 0.0
2018-Apr-28 02:59N 17°01' W 061°47'0 0.0
2018-Apr-28 02:29N 17°01' W 061°47'0 0.0
2018-Apr-28 01:59N 17°01' W 061°47'0 0.0
2018-Apr-28 01:29N 17°01' W 061°47'0 0.0
2018-Apr-28 00:59N 17°01' W 061°47'0 0.0
2018-Apr-28 00:29N 17°01' W 061°47'0 0.0
2018-Apr-27 23:59N 17°01' W 061°47'0 0.0
2018-Apr-27 23:29N 17°01' W 061°47'0 0.0
2018-Apr-27 22:59N 17°01' W 061°47'0 0.0
2018-Apr-27 22:29N 17°01' W 061°47'0 0.0
2018-Apr-27 21:59N 17°01' W 061°47'0 0.0
2018-Apr-27 21:29N 17°01' W 061°47'0 0.0
2018-Apr-27 20:59N 17°01' W 061°47'0 0.0
2018-Apr-27 20:29N 17°01' W 061°47'0 0.0
2018-Apr-27 19:59N 17°01' W 061°47'0 0.0
2018-Apr-27 19:29N 17°01' W 061°47'0 0.0
2018-Apr-27 18:59N 17°01' W 061°47'0 0.0
2018-Apr-27 18:29N 17°01' W 061°47'0 0.0
2018-Apr-27 17:59N 17°01' W 061°47'0 0.0
2018-Apr-27 17:29N 17°01' W 061°47'0 0.0
2018-Apr-27 16:59N 17°01' W 061°47'0 0.0
2018-Apr-27 16:29N 17°01' W 061°47'0 0.0
2018-Apr-27 15:59N 17°01' W 061°47'0 0.0
2018-Apr-27 15:29N 17°01' W 061°47'0 0.0
2018-Apr-27 14:59N 17°01' W 061°47'0 0.0
2018-Apr-27 14:29N 17°01' W 061°47'0 0.0
2018-Apr-27 13:59N 17°01' W 061°47'0 0.0
2018-Apr-27 13:29N 17°01' W 061°47'0 0.0
2018-Apr-27 12:59N 17°01' W 061°47'0 0.0
2018-Apr-27 12:29N 17°01' W 061°47'0 0.0
2018-Apr-27 11:59N 17°01' W 061°47'0 0.0
2018-Apr-27 11:29N 17°01' W 061°47'0 0.0
2018-Apr-27 10:59N 17°01' W 061°47'0 0.0
2018-Apr-27 10:29N 17°01' W 061°47'0 0.0
2018-Apr-27 09:59N 17°01' W 061°47'0 0.0
2018-Apr-27 09:29N 17°01' W 061°47'0 0.0
2018-Apr-27 08:59N 17°01' W 061°47'0 0.0
2018-Apr-27 08:29N 17°01' W 061°47'0 0.0
2018-Apr-27 07:59N 17°01' W 061°47'0 0.0
2018-Apr-27 07:29N 17°01' W 061°47'0 0.0
2018-Apr-27 06:59N 17°01' W 061°47'0 0.0
2018-Apr-27 06:29N 17°01' W 061°47'0 0.0
2018-Apr-27 05:59N 17°01' W 061°47'0 0.0
2018-Apr-27 05:29N 17°01' W 061°47'0 0.0
2018-Apr-27 04:59N 17°01' W 061°47'0 0.0
2018-Apr-27 04:29N 17°01' W 061°47'0 0.0
2018-Apr-27 03:59N 17°01' W 061°47'0 0.0
2018-Apr-27 03:29N 17°01' W 061°47'0 0.0
2018-Apr-27 02:59N 17°01' W 061°47'0 0.0
2018-Apr-27 02:29N 17°01' W 061°47'0 0.0
2018-Apr-27 01:59N 17°01' W 061°47'0 0.0
2018-Apr-27 01:29N 17°01' W 061°47'0 0.0
2018-Apr-27 00:59N 17°01' W 061°47'0 0.0
2018-Apr-27 00:29N 17°01' W 061°47'0 0.0
2018-Apr-26 23:59N 17°01' W 061°47'0 0.0
2018-Apr-26 23:29N 17°01' W 061°47'0 0.0
2018-Apr-26 22:59N 17°01' W 061°47'0 0.0
2018-Apr-26 22:29N 17°01' W 061°47'0 0.0
2018-Apr-26 21:59N 17°01' W 061°47'0 0.0
2018-Apr-26 21:29N 17°01' W 061°47'0 0.0
2018-Apr-26 20:59N 17°01' W 061°47'0 0.0
2018-Apr-26 20:29N 17°01' W 061°47'0 0.0
2018-Apr-26 19:59N 17°01' W 061°47'0 0.0
2018-Apr-26 19:29N 17°01' W 061°47'0 0.0
2018-Apr-26 18:59N 17°01' W 061°47'0 0.0
2018-Apr-26 18:29N 17°01' W 061°47'0 0.0
2018-Apr-26 17:59N 17°01' W 061°47'0 0.0
2018-Apr-26 17:29N 17°01' W 061°47'0 0.0
2018-Apr-26 16:59N 17°01' W 061°47'0 0.0
2018-Apr-26 16:29N 17°01' W 061°47'0 0.0
2018-Apr-26 15:59N 17°01' W 061°47'0 0.0
2018-Apr-26 15:29N 17°01' W 061°47'0 0.0
2018-Apr-26 14:59N 17°01' W 061°47'0 0.0
2018-Apr-26 14:29N 17°01' W 061°47'0 0.0
2018-Apr-26 13:59N 17°01' W 061°47'0 0.0
2018-Apr-26 13:29N 17°01' W 061°47'0 0.0
2018-Apr-26 12:59N 17°01' W 061°47'0 0.0
2018-Apr-26 12:29N 17°01' W 061°47'0 0.0
2018-Apr-26 11:59N 17°01' W 061°47'0 0.0
2018-Apr-26 11:29N 17°01' W 061°47'0 0.0
2018-Apr-26 10:59N 17°01' W 061°47'0 0.0
2018-Apr-26 10:29N 17°01' W 061°47'0 0.0
2018-Apr-26 09:59N 17°01' W 061°47'0 0.0
2018-Apr-26 09:29N 17°01' W 061°47'0 0.0
2018-Apr-26 08:59N 17°01' W 061°47'0 0.0
2018-Apr-26 08:29N 17°01' W 061°47'0 0.0
2018-Apr-26 07:59N 17°01' W 061°47'0 0.0
2018-Apr-26 07:29N 17°01' W 061°47'0 0.0
2018-Apr-26 06:59N 17°01' W 061°47'0 0.0
2018-Apr-26 06:29N 17°01' W 061°47'0 0.0
2018-Apr-26 05:56N 17°01' W 061°47'0 0.0
2018-Apr-26 05:29N 17°01' W 061°47'0 0.0
2018-Apr-26 04:59N 17°01' W 061°47'0 0.0
2018-Apr-26 04:29N 17°01' W 061°47'0 0.0
2018-Apr-26 03:59N 17°01' W 061°47'0 0.0
2018-Apr-26 03:29N 17°01' W 061°47'0 0.0
2018-Apr-26 02:59N 17°01' W 061°47'0 0.0
2018-Apr-26 02:29N 17°01' W 061°47'0 0.0
2018-Apr-26 01:59N 17°01' W 061°47'0 0.0
2018-Apr-26 01:29N 17°01' W 061°47'0 0.0
2018-Apr-26 00:59N 17°01' W 061°47'0 0.0
2018-Apr-26 00:29N 17°01' W 061°47'0 0.0
2018-Apr-25 23:59N 17°01' W 061°47'0 0.0
2018-Apr-25 23:29N 17°01' W 061°47'0 0.0
2018-Apr-25 22:59N 17°01' W 061°47'0 0.0
2018-Apr-25 22:29N 17°01' W 061°47'0 0.0
2018-Apr-25 21:59N 17°01' W 061°47'0 0.0
2018-Apr-25 21:29N 17°01' W 061°47'0 0.0
2018-Apr-25 20:59N 17°01' W 061°47'0 0.0
2018-Apr-25 20:29N 17°01' W 061°47'0 0.0
2018-Apr-25 19:59N 17°01' W 061°47'0 0.0
2018-Apr-25 19:29N 17°01' W 061°47'0 0.0
2018-Apr-25 18:59N 17°01' W 061°47'0 0.0
2018-Apr-25 18:29N 17°01' W 061°47'0 0.0
2018-Apr-25 17:59N 17°01' W 061°47'0 0.0
2018-Apr-25 17:29N 17°01' W 061°47'0 0.0
2018-Apr-25 16:59N 17°01' W 061°47'0 0.0
2018-Apr-25 16:29N 17°01' W 061°47'0 0.0
2018-Apr-25 15:59N 17°01' W 061°47'0 0.0
2018-Apr-25 15:29N 17°01' W 061°47'0 0.0
2018-Apr-25 14:59N 17°01' W 061°47'0 0.0
2018-Apr-25 14:29N 17°01' W 061°47'0 0.0
2018-Apr-25 13:59N 17°01' W 061°47'0 0.0
2018-Apr-25 13:29N 17°01' W 061°47'0 0.0
2018-Apr-25 12:59N 17°01' W 061°47'0 0.0
2018-Apr-25 12:29N 17°01' W 061°47'0 0.0
2018-Apr-25 11:59N 17°01' W 061°47'0 0.0
2018-Apr-25 11:29N 17°01' W 061°47'0 0.0
2018-Apr-25 10:59N 17°01' W 061°47'0 0.0
2018-Apr-25 10:29N 17°01' W 061°47'0 0.0
2018-Apr-25 09:59N 17°01' W 061°47'0 0.0
2018-Apr-25 09:29N 17°01' W 061°47'0 0.0
2018-Apr-25 08:56N 17°01' W 061°47'0 0.0
2018-Apr-25 08:29N 17°01' W 061°47'0 0.0
2018-Apr-25 07:59N 17°01' W 061°47'0 0.0
2018-Apr-25 07:29N 17°01' W 061°47'0 0.0
2018-Apr-25 06:59N 17°01' W 061°47'0 0.0
2018-Apr-25 06:29N 17°01' W 061°47'0 0.0
2018-Apr-25 05:59N 17°01' W 061°47'0 0.0
2018-Apr-25 05:29N 17°01' W 061°47'0 0.0
2018-Apr-25 04:56N 17°01' W 061°47'0 0.0
2018-Apr-25 04:29N 17°01' W 061°47'0 0.0
2018-Apr-25 03:59N 17°01' W 061°47'0 0.0
2018-Apr-25 03:29N 17°01' W 061°47'0 0.0
2018-Apr-25 02:59N 17°01' W 061°47'0 0.0
2018-Apr-25 02:29N 17°01' W 061°47'0 0.0
2018-Apr-25 01:59N 17°01' W 061°47'0 0.0
2018-Apr-25 01:29N 17°01' W 061°47'0 0.0
2018-Apr-25 00:59N 17°01' W 061°47'0 0.0
2018-Apr-25 00:29N 17°01' W 061°47'0 0.0
2018-Apr-24 23:59N 17°01' W 061°47'0 0.0
2018-Apr-24 23:29N 17°01' W 061°47'0 0.0
2018-Apr-24 22:59N 17°01' W 061°47'0 0.0
2018-Apr-24 22:29N 17°01' W 061°47'0 0.0
2018-Apr-24 21:59N 17°01' W 061°47'0 0.0
2018-Apr-24 21:29N 17°01' W 061°47'0 0.0
2018-Apr-24 20:59N 17°01' W 061°47'0 0.0
2018-Apr-24 20:29N 17°01' W 061°47'0 0.0
2018-Apr-24 19:59N 17°01' W 061°47'0 0.0
2018-Apr-24 19:29N 17°01' W 061°47'0 0.0
2018-Apr-24 18:59N 17°01' W 061°47'0 0.0
2018-Apr-24 18:29N 17°01' W 061°47'0 0.0
2018-Apr-24 17:59N 17°01' W 061°47'0 0.0
2018-Apr-24 17:29N 17°01' W 061°47'0 0.0
2018-Apr-24 16:59N 17°01' W 061°47'0 0.0
2018-Apr-24 16:29N 17°01' W 061°47'0 0.0
2018-Apr-24 15:59N 17°01' W 061°47'0 0.0
2018-Apr-24 15:29N 17°01' W 061°47'0 0.0
2018-Apr-24 14:59N 17°01' W 061°47'0 0.0
2018-Apr-24 14:29N 17°01' W 061°47'0 0.0
2018-Apr-24 13:59N 17°01' W 061°47'0 0.0
2018-Apr-24 13:29N 17°01' W 061°47'0 0.0
2018-Apr-24 12:59N 17°01' W 061°47'0 0.0
2018-Apr-24 12:29N 17°01' W 061°47'0 0.0
2018-Apr-24 11:59N 17°01' W 061°47'0 0.0
2018-Apr-24 11:29N 17°01' W 061°47'0 0.0
2018-Apr-24 10:59N 17°01' W 061°47'0 0.0
2018-Apr-24 10:29N 17°01' W 061°47'0 0.0
2018-Apr-24 09:59N 17°01' W 061°47'0 0.0
2018-Apr-24 09:29N 17°01' W 061°47'0 0.0
2018-Apr-24 08:59N 17°01' W 061°47'0 0.0
2018-Apr-24 08:29N 17°01' W 061°47'0 0.0
2018-Apr-24 07:59N 17°01' W 061°47'0 0.0
2018-Apr-24 07:29N 17°01' W 061°47'0 0.0
2018-Apr-24 06:59N 17°01' W 061°47'0 0.0
2018-Apr-24 06:29N 17°01' W 061°47'0 0.0
2018-Apr-24 05:59N 17°01' W 061°47'0 0.0
2018-Apr-24 05:29N 17°01' W 061°47'0 0.0
2018-Apr-24 04:59N 17°01' W 061°47'0 0.0
2018-Apr-24 04:29N 17°01' W 061°47'0 0.0
2018-Apr-24 03:59N 17°01' W 061°47'0 0.0
2018-Apr-24 03:29N 17°01' W 061°47'0 0.0
2018-Apr-24 02:59N 17°01' W 061°47'0 0.0
2018-Apr-24 02:29N 17°01' W 061°47'0 0.0
2018-Apr-24 01:59N 17°01' W 061°47'0 0.0
2018-Apr-24 01:29N 17°01' W 061°47'0 0.0
2018-Apr-24 00:59N 17°01' W 061°47'0 0.0
2018-Apr-24 00:29N 17°01' W 061°47'0 0.0
2018-Apr-23 23:59N 17°01' W 061°47'0 0.0
2018-Apr-23 23:29N 17°01' W 061°47'0 0.0
2018-Apr-23 22:59N 17°01' W 061°47'0 0.0
2018-Apr-23 22:29N 17°01' W 061°47'0 0.0
2018-Apr-23 21:59N 17°01' W 061°47'0 0.0
2018-Apr-23 21:29N 17°01' W 061°47'0 0.0
2018-Apr-23 20:59N 17°01' W 061°47'0 0.0
2018-Apr-23 20:29N 17°01' W 061°47'0 0.0
2018-Apr-23 19:59N 17°01' W 061°47'0 0.0
2018-Apr-23 19:29N 17°01' W 061°47'0 0.0
2018-Apr-23 18:59N 17°01' W 061°47'0 0.0
2018-Apr-23 18:29N 17°01' W 061°47'0 0.0
2018-Apr-23 17:59N 17°01' W 061°47'0 0.0
2018-Apr-23 17:29N 17°01' W 061°47'0 0.0
2018-Apr-23 16:59N 17°01' W 061°47'0 0.0
2018-Apr-23 16:29N 17°01' W 061°47'0 0.0
2018-Apr-23 15:59N 17°01' W 061°47'0 0.0
2018-Apr-23 15:29N 17°01' W 061°47'0 0.0
2018-Apr-23 14:59N 17°01' W 061°47'0 0.0
2018-Apr-23 14:29N 17°01' W 061°47'0 0.0
2018-Apr-23 13:59N 17°01' W 061°47'0 0.0
2018-Apr-23 13:29N 17°01' W 061°47'0 0.0
2018-Apr-23 12:59N 17°01' W 061°47'0 0.0
2018-Apr-23 12:29N 17°01' W 061°47'0 0.0
2018-Apr-23 11:59N 17°01' W 061°47'0 0.0
2018-Apr-23 11:29N 17°01' W 061°47'0 0.0
2018-Apr-23 10:59N 17°01' W 061°47'0 0.0
2018-Apr-23 10:29N 17°01' W 061°47'0 0.0
2018-Apr-23 09:59N 17°01' W 061°47'0 0.0
2018-Apr-23 09:29N 17°01' W 061°47'0 0.0
2018-Apr-23 08:59N 17°01' W 061°47'0 0.0
2018-Apr-23 08:29N 17°01' W 061°47'0 0.0
2018-Apr-23 07:59N 17°01' W 061°47'0 0.0
2018-Apr-23 07:29N 17°01' W 061°47'0 0.0
2018-Apr-23 06:59N 17°01' W 061°47'0 0.0
2018-Apr-23 06:29N 17°01' W 061°47'0 0.0
2018-Apr-23 05:59N 17°01' W 061°47'0 0.0
2018-Apr-23 05:29N 17°01' W 061°47'0 0.0
2018-Apr-23 04:59N 17°01' W 061°47'0 0.0
2018-Apr-23 04:29N 17°01' W 061°47'0 0.0
2018-Apr-23 03:59N 17°01' W 061°47'0 0.0
2018-Apr-23 03:29N 17°01' W 061°47'0 0.0
2018-Apr-23 02:59N 17°01' W 061°47'0 0.0
2018-Apr-23 02:29N 17°01' W 061°47'0 0.0
2018-Apr-23 01:59N 17°01' W 061°47'0 0.0
2018-Apr-23 01:29N 17°01' W 061°47'0 0.0
2018-Apr-23 00:59N 17°01' W 061°47'0 0.0
2018-Apr-23 00:29N 17°01' W 061°47'0 0.0
2018-Apr-22 23:59N 17°01' W 061°47'0 0.0
2018-Apr-22 23:29N 17°01' W 061°47'0 0.0
2018-Apr-22 22:59N 17°01' W 061°47'0 0.0
2018-Apr-22 22:29N 17°01' W 061°47'0 0.0
2018-Apr-22 21:59N 17°01' W 061°47'0 0.0
2018-Apr-22 21:29N 17°01' W 061°47'0 0.0
2018-Apr-22 20:59N 17°01' W 061°47'0 0.0
2018-Apr-22 20:29N 17°01' W 061°47'0 0.0
2018-Apr-22 19:59N 17°01' W 061°47'0 0.0
2018-Apr-22 19:29N 17°01' W 061°47'0 0.0
2018-Apr-22 18:59N 17°01' W 061°47'0 0.0
2018-Apr-22 18:29N 17°01' W 061°47'0 0.0
2018-Apr-22 17:59N 17°01' W 061°47'0 0.0
2018-Apr-22 17:29N 17°01' W 061°47'0 0.0
2018-Apr-22 16:59N 17°01' W 061°47'0 0.0
2018-Apr-22 16:29N 17°01' W 061°47'0 0.0
2018-Apr-22 15:59N 17°01' W 061°47'0 0.0
2018-Apr-22 15:29N 17°01' W 061°47'0 0.0
2018-Apr-22 14:59N 17°01' W 061°47'0 0.0
2018-Apr-22 14:29N 17°01' W 061°47'0 0.0
2018-Apr-22 13:59N 17°01' W 061°47'0 0.0
2018-Apr-22 13:29N 17°01' W 061°47'0 0.0
2018-Apr-22 12:59N 17°01' W 061°47'0 0.0
2018-Apr-22 12:29N 17°01' W 061°47'0 0.0
2018-Apr-22 11:59N 17°01' W 061°47'0 0.0
2018-Apr-22 11:29N 17°01' W 061°47'0 0.0
2018-Apr-22 10:59N 17°01' W 061°47'0 0.0
2018-Apr-22 10:29N 17°01' W 061°47'0 0.0
2018-Apr-22 09:59N 17°01' W 061°47'0 0.0
2018-Apr-22 09:29N 17°01' W 061°47'0 0.0
2018-Apr-22 08:59N 17°01' W 061°47'0 0.0
2018-Apr-22 08:29N 17°01' W 061°47'0 0.0
2018-Apr-22 07:59N 17°01' W 061°47'0 0.0
2018-Apr-22 07:29N 17°01' W 061°47'0 0.0
2018-Apr-22 06:59N 17°01' W 061°47'0 0.0
2018-Apr-22 06:29N 17°01' W 061°47'0 0.0
2018-Apr-22 05:59N 17°01' W 061°47'0 0.0
2018-Apr-22 05:29N 17°01' W 061°47'0 0.0
2018-Apr-22 04:59N 17°01' W 061°47'0 0.0
2018-Apr-22 04:29N 17°01' W 061°47'0 0.0
2018-Apr-22 03:59N 17°01' W 061°47'0 0.0
2018-Apr-22 03:29N 17°01' W 061°47'0 0.0
2018-Apr-22 02:59N 17°01' W 061°47'0 0.0
2018-Apr-22 02:29N 17°01' W 061°47'0 0.0
2018-Apr-22 01:59N 17°01' W 061°47'0 0.0
2018-Apr-22 01:29N 17°01' W 061°47'0 0.0
2018-Apr-22 00:59N 17°01' W 061°47'0 0.0
2018-Apr-22 00:29N 17°01' W 061°47'0 0.0
2018-Apr-21 23:59N 17°01' W 061°47'0 0.0
2018-Apr-21 23:29N 17°01' W 061°47'0 0.0
2018-Apr-21 22:59N 17°01' W 061°47'0 0.0
2018-Apr-21 22:29N 17°01' W 061°47'0 0.0
2018-Apr-21 21:56N 17°01' W 061°47'0 0.0
2018-Apr-21 21:29N 17°01' W 061°47'0 0.0
2018-Apr-21 20:59N 17°01' W 061°47'0 0.0
2018-Apr-21 20:29N 17°01' W 061°47'0 0.0
2018-Apr-21 19:59N 17°01' W 061°47'0 0.0
2018-Apr-21 19:29N 17°01' W 061°47'0 0.0
2018-Apr-21 18:59N 17°01' W 061°47'0 0.0
2018-Apr-21 18:29N 17°01' W 061°47'0 0.0
2018-Apr-21 17:59N 17°01' W 061°47'0 0.0
2018-Apr-21 17:29N 17°01' W 061°47'0 0.0
2018-Apr-21 16:59N 17°01' W 061°47'0 0.0
2018-Apr-21 16:29N 17°01' W 061°47'0 0.0
2018-Apr-21 15:59N 17°01' W 061°47'0 0.0
2018-Apr-21 15:29N 17°01' W 061°47'0 0.0
2018-Apr-21 14:59N 17°01' W 061°47'0 0.0
2018-Apr-21 14:29N 17°01' W 061°47'0 0.0
2018-Apr-21 13:59N 17°01' W 061°47'0 0.0
2018-Apr-21 13:29N 17°01' W 061°47'0 0.0
2018-Apr-21 12:59N 17°01' W 061°47'0 0.0
2018-Apr-21 12:29N 17°01' W 061°47'0 0.0
2018-Apr-21 11:59N 17°01' W 061°47'0 0.0
2018-Apr-21 11:29N 17°01' W 061°47'0 0.0
2018-Apr-21 10:59N 17°01' W 061°47'0 0.0
2018-Apr-21 10:29N 17°01' W 061°47'0 0.0
2018-Apr-21 09:59N 17°01' W 061°47'0 0.0
2018-Apr-21 09:29N 17°01' W 061°47'0 0.0
2018-Apr-21 08:59N 17°01' W 061°47'0 0.0
2018-Apr-21 08:29N 17°01' W 061°47'0 0.0
2018-Apr-21 07:59N 17°01' W 061°47'0 0.0
2018-Apr-21 07:29N 17°01' W 061°47'0 0.0
2018-Apr-21 06:59N 17°01' W 061°47'0 0.0
2018-Apr-21 06:29N 17°01' W 061°47'0 0.0
2018-Apr-21 05:59N 17°01' W 061°47'0 0.0
2018-Apr-21 05:29N 17°01' W 061°47'0 0.0
2018-Apr-21 04:59N 17°01' W 061°47'0 0.0
2018-Apr-21 04:29N 17°01' W 061°47'0 0.0
2018-Apr-21 03:59N 17°01' W 061°47'0 0.0
2018-Apr-21 03:29N 17°01' W 061°47'0 0.0
2018-Apr-21 02:59N 17°01' W 061°47'0 0.0
2018-Apr-21 02:29N 17°01' W 061°47'0 0.0
2018-Apr-21 01:59N 17°01' W 061°47'0 0.0
2018-Apr-21 01:29N 17°01' W 061°47'0 0.0
2018-Apr-21 00:59N 17°01' W 061°47'0 0.0
2018-Apr-21 00:29N 17°01' W 061°47'0 0.0
2018-Apr-20 23:59N 17°01' W 061°47'0 0.0
2018-Apr-20 23:29N 17°01' W 061°47'0 0.0
2018-Apr-20 22:59N 17°01' W 061°47'0 0.0
2018-Apr-20 22:29N 17°01' W 061°47'0 0.0
2018-Apr-20 21:59N 17°01' W 061°47'0 0.0
2018-Apr-20 21:29N 17°01' W 061°47'0 0.0
2018-Apr-20 20:59N 17°01' W 061°47'0 0.0
2018-Apr-20 20:29N 17°01' W 061°47'0 0.0
2018-Apr-20 19:59N 17°01' W 061°47'  

Dump ship's entire track history